Time;durP1;ratioP1;P1;durP2;ratioP2;P2;SDS_P1;SDS_P2;PMS_P1;PMS_P2;Temp;Humidity;BMP_temperature;BMP_pressure;BME280_temperature;BME280_humidity;BME280_pressure;Samples;Min_cycle;Max_cycle;Signal;HPM_P1;HPM_P2
2021/11/19 00:03:32;;;;;;;;;;;16.80;40.90;;;;;;8368877;28;20425;-50
2021/11/19 00:07:33;;;;;;;;;;;16.80;40.80;;;;;;8368955;28;19975;-51
2021/11/19 00:11:35;;;;;;;;;;;16.80;40.90;;;;;;8368332;28;19925;-50
2021/11/19 00:15:36;;;;;;;;;;;16.80;40.90;;;;;;8368373;28;19971;-48
2021/11/19 00:19:38;;;;;;;;;;;16.80;40.80;;;;;;8368439;28;19916;-50
2021/11/19 00:23:40;;;;;;;;;;;16.80;40.80;;;;;;8368019;28;19955;-53
2021/11/19 00:27:40;;;;;;;;;;;16.70;40.80;;;;;;8368671;28;19919;-50
2021/11/19 00:31:41;;;;;;;;;;;16.70;40.80;;;;;;8368070;28;19917;-52
2021/11/19 00:35:44;;;;;;;;;;;16.70;40.80;;;;;;8367515;28;19956;-49
2021/11/19 00:39:45;;;;;;;;;;;16.70;40.80;;;;;;8367917;28;19916;-52
2021/11/19 00:43:46;;;;;;;;;;;16.70;40.70;;;;;;8367868;28;19920;-51
2021/11/19 00:47:47;;;;;;;;;;;16.70;40.80;;;;;;8367418;28;19927;-51
2021/11/19 00:51:49;;;;;;;;;;;16.70;40.80;;;;;;8366378;28;19917;-50
2021/11/19 00:55:49;;;;;;;;;;;16.70;40.80;;;;;;8367498;28;19935;-50
2021/11/19 00:59:50;;;;;;;;;;;16.70;40.70;;;;;;8366835;28;19982;-49
2021/11/19 01:03:50;;;;;;;;;;;16.70;40.70;;;;;;8367067;28;19944;-49
2021/11/19 01:07:51;;;;;;;;;;;16.70;40.70;;;;;;8367216;28;19920;-51
2021/11/19 01:11:53;;;;;;;;;;;16.70;40.70;;;;;;8366637;28;19951;-52
2021/11/19 01:15:55;;;;;;;;;;;16.70;40.70;;;;;;8366994;28;19924;-50
2021/11/19 01:20:05;;;;;;;;;;;16.70;40.70;;;;;;8366612;28;20003;-49
2021/11/19 01:24:06;;;;;;;;;;;16.60;40.70;;;;;;8366026;28;19921;-49
2021/11/19 01:28:06;;;;;;;;;;;16.60;40.70;;;;;;8366475;28;19937;-50
2021/11/19 01:32:09;;;;;;;;;;;16.60;40.70;;;;;;8366196;28;20000;-50
2021/11/19 01:36:11;;;;;;;;;;;16.60;40.60;;;;;;8365488;28;19974;-49
2021/11/19 01:40:12;;;;;;;;;;;16.60;40.70;;;;;;8365878;28;19916;-50
2021/11/19 01:44:18;;;;;;;;;;;16.60;40.70;;;;;;8365664;28;20386;-49
2021/11/19 01:48:21;;;;;;;;;;;16.60;40.70;;;;;;8365388;28;19920;-50
2021/11/19 01:52:24;;;;;;;;;;;16.60;40.70;;;;;;8365433;28;19925;-50
2021/11/19 01:56:57;;;;;;;;;;;16.60;40.70;;;;;;8365335;28;19921;-50
2021/11/19 02:01:00;;;;;;;;;;;16.60;40.70;;;;;;8320672;28;20000;-50
2021/11/19 02:05:03;;;;;;;;;;;16.50;40.70;;;;;;8364825;28;19979;-50
2021/11/19 02:09:06;;;;;;;;;;;16.60;40.70;;;;;;8333559;28;20370;-50
2021/11/19 02:13:20;;;;;;;;;;;16.50;40.70;;;;;;8365030;28;19921;-50
2021/11/19 02:17:21;;;;;;;;;;;16.60;40.70;;;;;;8364846;28;19916;-50
2021/11/19 02:21:23;;;;;;;;;;;16.50;40.70;;;;;;8364144;28;19917;-51
2021/11/19 02:25:36;;;;;;;;;;;16.50;40.70;;;;;;8364618;28;19924;-50
2021/11/19 02:29:39;;;;;;;;;;;16.50;40.70;;;;;;8363962;28;20432;-50
2021/11/19 02:33:40;;;;;;;;;;;16.50;40.70;;;;;;8364486;28;19924;-50
2021/11/19 02:38:02;;;;;;;;;;;16.50;40.70;;;;;;8364084;28;19987;-49
2021/11/19 02:42:10;;;;;;;;;;;16.50;40.70;;;;;;8363572;28;20000;-50
2021/11/19 02:46:14;;;;;;;;;;;16.50;40.70;;;;;;8364129;28;20374;-50
2021/11/19 02:50:17;;;;;;;;;;;16.50;40.70;;;;;;8363778;28;19924;-51
2021/11/19 02:54:18;;;;;;;;;;;16.50;40.70;;;;;;8363123;28;19920;-49
2021/11/19 02:58:22;;;;;;;;;;;16.40;40.70;;;;;;8363767;28;19920;-50
2021/11/19 03:02:24;;;;;;;;;;;16.40;40.60;;;;;;8363387;28;19948;-50
2021/11/19 03:06:25;;;;;;;;;;;16.50;40.70;;;;;;8363016;28;19917;-50
2021/11/19 03:10:28;;;;;;;;;;;16.50;40.70;;;;;;8363319;28;20320;-50
2021/11/19 03:14:28;;;;;;;;;;;16.50;40.70;;;;;;8362712;28;19929;-49
2021/11/19 03:18:29;;;;;;;;;;;16.50;40.70;;;;;;8362866;28;19921;-49
2021/11/19 03:22:31;;;;;;;;;;;16.50;40.70;;;;;;8363391;28;20292;-49
2021/11/19 03:26:33;;;;;;;;;;;16.40;40.70;;;;;;8362657;28;19913;-48
2021/11/19 03:30:34;;;;;;;;;;;16.40;40.70;;;;;;8362975;28;20447;-52
2021/11/19 03:34:35;;;;;;;;;;;16.40;40.70;;;;;;8363019;28;19927;-50
2021/11/19 03:38:37;;;;;;;;;;;16.40;40.70;;;;;;8362890;28;19917;-50
2021/11/19 03:42:37;;;;;;;;;;;16.40;40.60;;;;;;8362900;28;19917;-49
2021/11/19 03:46:41;;;;;;;;;;;16.40;40.60;;;;;;8362722;28;20440;-53
2021/11/19 03:50:47;;;;;;;;;;;16.40;40.70;;;;;;8362143;28;19958;-50
2021/11/19 03:54:49;;;;;;;;;;;16.40;40.60;;;;;;8362408;28;19925;-50
2021/11/19 03:58:49;;;;;;;;;;;16.40;40.70;;;;;;8362809;28;20093;-50
2021/11/19 04:02:50;;;;;;;;;;;16.40;40.70;;;;;;8362050;28;19924;-50
2021/11/19 04:06:51;;;;;;;;;;;16.40;40.70;;;;;;8362437;28;19973;-49
2021/11/19 04:10:52;;;;;;;;;;;16.40;40.60;;;;;;8362585;28;19913;-50
2021/11/19 04:14:53;;;;;;;;;;;16.40;40.70;;;;;;8361985;28;19931;-50
2021/11/19 04:18:53;;;;;;;;;;;16.40;40.70;;;;;;8362538;28;20400;-49
2021/11/19 04:22:54;;;;;;;;;;;16.40;40.70;;;;;;8362212;28;19923;-50
2021/11/19 04:26:54;;;;;;;;;;;16.40;40.70;;;;;;8364561;28;19960;-51
2021/11/19 04:30:56;;;;;;;;;;;16.40;40.70;;;;;;8368125;28;19996;-52
2021/11/19 04:34:56;;;;;;;;;;;16.40;40.60;;;;;;8367959;28;19925;-51
2021/11/19 04:38:57;;;;;;;;;;;16.40;40.60;;;;;;8367704;28;19917;-52
2021/11/19 04:42:57;;;;;;;;;;;16.40;40.70;;;;;;8367671;28;20281;-50
2021/11/19 04:46:58;;;;;;;;;;;16.30;40.60;;;;;;8367593;28;19913;-50
2021/11/19 04:50:59;;;;;;;;;;;16.30;40.60;;;;;;8366974;28;19923;-50
2021/11/19 04:54:59;;;;;;;;;;;16.30;40.60;;;;;;8367519;28;19967;-53
2021/11/19 04:59:00;;;;;;;;;;;16.30;40.60;;;;;;8367512;28;20369;-50
2021/11/19 05:03:00;;;;;;;;;;;16.30;40.60;;;;;;8366760;28;19917;-50
2021/11/19 05:07:01;;;;;;;;;;;16.30;40.60;;;;;;8357275;28;20070;-49
2021/11/19 05:11:03;;;;;;;;;;;16.30;40.60;;;;;;8342302;28;19967;-50
2021/11/19 05:15:05;;;;;;;;;;;16.30;40.60;;;;;;8366378;28;19967;-53
2021/11/19 05:19:05;;;;;;;;;;;16.30;40.60;;;;;;8366952;28;19938;-52
2021/11/19 05:23:07;;;;;;;;;;;16.30;40.60;;;;;;8366653;28;19971;-50
2021/11/19 05:27:08;;;;;;;;;;;16.30;40.60;;;;;;8366024;28;20374;-50
2021/11/19 05:31:09;;;;;;;;;;;16.30;40.60;;;;;;8366046;28;19966;-50
2021/11/19 05:35:10;;;;;;;;;;;16.30;40.60;;;;;;8366462;28;19929;-49
2021/11/19 05:39:11;;;;;;;;;;;16.30;40.60;;;;;;8364821;28;20301;-49
2021/11/19 05:43:12;;;;;;;;;;;16.30;40.60;;;;;;8360830;28;19917;-50
2021/11/19 05:47:12;;;;;;;;;;;16.30;40.60;;;;;;8365822;28;19920;-50
2021/11/19 05:51:13;;;;;;;;;;;16.40;40.60;;;;;;8365000;28;19917;-50
2021/11/19 05:55:15;;;;;;;;;;;16.30;40.60;;;;;;8365456;28;19932;-49
2021/11/19 05:59:16;;;;;;;;;;;16.30;40.60;;;;;;8365275;28;20283;-49
2021/11/19 06:03:16;;;;;;;;;;;16.30;40.60;;;;;;8364847;28;19921;-49
2021/11/19 06:07:18;;;;;;;;;;;16.30;40.60;;;;;;8365141;28;19917;-49
2021/11/19 06:11:21;;;;;;;;;;;16.30;40.60;;;;;;8365091;28;19917;-50
2021/11/19 06:15:23;;;;;;;;;;;16.30;40.60;;;;;;8364489;28;19921;-50
2021/11/19 06:19:25;;;;;;;;;;;16.30;40.60;;;;;;8364855;28;19917;-51
2021/11/19 06:23:35;;;;;;;;;;;16.30;40.60;;;;;;8364480;28;19921;-49
2021/11/19 06:27:37;;;;;;;;;;;16.30;40.60;;;;;;8364496;28;20297;-48
2021/11/19 06:31:39;;;;;;;;;;;16.30;40.60;;;;;;8364455;28;19917;-50
2021/11/19 06:35:40;;;;;;;;;;;16.30;40.60;;;;;;8363627;28;19925;-50
2021/11/19 06:39:42;;;;;;;;;;;16.30;40.60;;;;;;8364286;28;19966;-51
2021/11/19 06:43:42;;;;;;;;;;;16.30;40.50;;;;;;8364183;28;19924;-51
2021/11/19 06:47:43;;;;;;;;;;;16.30;40.60;;;;;;8363396;28;19917;-50
2021/11/19 06:51:44;;;;;;;;;;;16.30;40.60;;;;;;8362987;28;19917;-50
2021/11/19 06:55:44;;;;;;;;;;;16.30;40.50;;;;;;8363439;28;19931;-52
2021/11/19 06:59:45;;;;;;;;;;;16.30;40.50;;;;;;8363465;28;19995;-49
2021/11/19 07:03:46;;;;;;;;;;;16.30;40.60;;;;;;8363594;28;20393;-50
2021/11/19 07:07:47;;;;;;;;;;;16.30;40.60;;;;;;8363429;28;19959;-49
2021/11/19 07:11:48;;;;;;;;;;;16.30;40.60;;;;;;8360371;28;20009;-51
2021/11/19 07:15:48;;;;;;;;;;;16.30;40.50;;;;;;8363262;28;19956;-50
2021/11/19 07:19:49;;;;;;;;;;;16.30;40.60;;;;;;8363278;28;19916;-49
2021/11/19 07:23:50;;;;;;;;;;;16.20;40.50;;;;;;8362626;28;20116;-49
2021/11/19 07:27:56;;;;;;;;;;;16.20;40.50;;;;;;8363120;28;20302;-52
2021/11/19 07:31:56;;;;;;;;;;;16.20;40.50;;;;;;8367383;28;20420;-50
2021/11/19 07:35:58;;;;;;;;;;;16.20;40.50;;;;;;8362661;28;19933;-50
2021/11/19 07:39:59;;;;;;;;;;;16.20;40.50;;;;;;8363125;28;19944;-49
2021/11/19 07:43:59;;;;;;;;;;;16.20;40.50;;;;;;8362843;28;19917;-50
2021/11/19 07:48:00;;;;;;;;;;;16.20;40.50;;;;;;8362332;28;19927;-49
2021/11/19 07:52:00;;;;;;;;;;;16.20;40.50;;;;;;8362656;28;19920;-50
2021/11/19 07:56:01;;;;;;;;;;;16.20;40.50;;;;;;8362545;28;20273;-49
2021/11/19 08:00:07;;;;;;;;;;;16.20;40.50;;;;;;8362100;28;19917;-50
2021/11/19 08:04:08;;;;;;;;;;;16.20;40.50;;;;;;8367980;28;20385;-49
2021/11/19 08:08:08;;;;;;;;;;;16.20;40.50;;;;;;8351701;28;20004;-50
2021/11/19 08:12:09;;;;;;;;;;;16.20;40.50;;;;;;8368296;28;19924;-49
2021/11/19 08:16:10;;;;;;;;;;;16.20;40.50;;;;;;8368908;28;20042;-49
2021/11/19 08:20:14;;;;;;;;;;;16.20;40.50;;;;;;8368473;28;19948;-52
2021/11/19 08:24:14;;;;;;;;;;;16.20;40.50;;;;;;8367952;28;19917;-51
2021/11/19 08:28:15;;;;;;;;;;;16.20;40.50;;;;;;8368256;28;19923;-53
2021/11/19 08:32:16;;;;;;;;;;;16.20;40.60;;;;;;8367932;28;20023;-52
2021/11/19 08:36:18;;;;;;;;;;;16.20;40.50;;;;;;8368007;28;20015;-49
2021/11/19 08:40:18;;;;;;;;;;;16.20;40.50;;;;;;8367953;28;19916;-51
2021/11/19 08:44:19;;;;;;;;;;;16.20;40.50;;;;;;8367629;28;19956;-51
2021/11/19 08:48:21;;;;;;;;;;;16.20;41.00;;;;;;8367117;28;20279;-50
2021/11/19 08:52:22;;;;;;;;;;;16.20;40.50;;;;;;8367540;28;20290;-50
2021/11/19 08:56:23;;;;;;;;;;;16.30;40.50;;;;;;8367671;28;19921;-52
2021/11/19 09:00:31;;;;;;;;;;;16.20;40.50;;;;;;8366708;28;19923;-50
2021/11/19 09:04:33;;;;;;;;;;;16.20;40.40;;;;;;8367386;28;19963;-49
2021/11/19 09:08:34;;;;;;;;;;;16.20;40.50;;;;;;8366544;28;20039;-49
2021/11/19 09:12:34;;;;;;;;;;;16.20;40.40;;;;;;8365928;28;20393;-50
2021/11/19 09:16:38;;;;;;;;;;;16.20;40.50;;;;;;8367362;28;19941;-50
2021/11/19 09:20:54;;;;;;;;;;;16.20;40.50;;;;;;8366037;28;19917;-49
2021/11/19 09:24:55;;;;;;;;;;;16.20;40.50;;;;;;8366379;28;19999;-50
2021/11/19 09:28:56;;;;;;;;;;;16.20;40.50;;;;;;8366231;28;20392;-50
2021/11/19 09:32:58;;;;;;;;;;;16.20;40.50;;;;;;8365683;28;19925;-51
2021/11/19 09:36:58;;;;;;;;;;;16.20;40.50;;;;;;8366407;28;20012;-49
2021/11/19 09:41:17;;;;;;;;;;;16.20;40.40;;;;;;8366273;28;19920;-49
2021/11/19 09:45:36;;;;;;;;;;;16.20;40.40;;;;;;8365132;28;19921;-49
2021/11/19 09:49:55;;;;;;;;;;;16.20;40.40;;;;;;8365463;28;19932;-50
2021/11/19 09:54:23;;;;;;;;;;;16.20;40.50;;;;;;8364980;28;19931;-49
2021/11/19 09:58:29;;;;;;;;;;;16.20;40.50;;;;;;8365240;28;19929;-49
2021/11/19 10:02:32;;;;;;;;;;;16.20;40.40;;;;;;8365200;28;19923;-50
2021/11/19 10:06:40;;;;;;;;;;;16.20;40.40;;;;;;8365017;28;19913;-50
2021/11/19 10:10:47;;;;;;;;;;;16.20;40.40;;;;;;8365206;28;19964;-50
2021/11/19 10:14:53;;;;;;;;;;;16.20;40.40;;;;;;8364384;28;19929;-49
2021/11/19 10:19:06;;;;;;;;;;;16.20;40.40;;;;;;8364923;28;20285;-48
2021/11/19 10:23:08;;;;;;;;;;;16.20;40.40;;;;;;8364654;28;20000;-50
2021/11/19 10:27:11;;;;;;;;;;;16.20;40.50;;;;;;8364223;28;20370;-50
2021/11/19 10:31:13;;;;;;;;;;;16.20;40.40;;;;;;8364522;28;19913;-50
2021/11/19 10:35:35;;;;;;;;;;;16.20;40.40;;;;;;8364027;28;19932;-49
2021/11/19 10:39:50;;;;;;;;;;;16.20;40.40;;;;;;8364260;28;19967;-51
2021/11/19 10:44:05;;;;;;;;;;;16.30;40.40;;;;;;8363956;28;20339;-50
2021/11/19 10:48:05;;;;;;;;;;;16.20;40.40;;;;;;8363410;28;19917;-49
2021/11/19 10:52:33;;;;;;;;;;;16.30;40.50;;;;;;8364374;28;20362;-50
2021/11/19 10:56:52;;;;;;;;;;;16.30;40.40;;;;;;8363455;28;19960;-48
2021/11/19 11:00:52;;;;;;;;;;;16.30;40.50;;;;;;8363794;28;19916;-50
2021/11/19 11:04:57;;;;;;;;;;;16.30;40.50;;;;;;8346283;28;19917;-51
2021/11/19 11:09:15;;;;;;;;;;;16.30;40.50;;;;;;8342793;28;19962;-52
2021/11/19 11:13:30;;;;;;;;;;;16.30;40.50;;;;;;8363374;28;19960;-50
2021/11/19 11:17:33;;;;;;;;;;;16.30;40.50;;;;;;8363357;28;19917;-49
2021/11/19 11:21:35;;;;;;;;;;;16.30;40.50;;;;;;8363455;28;19920;-52
2021/11/19 11:25:36;;;;;;;;;;;16.30;40.50;;;;;;8363302;28;20305;-49
2021/11/19 11:29:42;;;;;;;;;;;16.30;40.50;;;;;;8362551;28;19924;-49
2021/11/19 11:34:02;;;;;;;;;;;16.30;40.50;;;;;;8363015;28;19946;-50
2021/11/19 11:38:06;;;;;;;;;;;16.30;40.50;;;;;;8367702;28;19917;-49
2021/11/19 11:42:15;;;;;;;;;;;16.30;40.50;;;;;;8369706;28;20003;-48
2021/11/19 11:46:18;;;;;;;;;;;16.30;40.50;;;;;;8369883;28;19978;-50
2021/11/19 11:50:19;;;;;;;;;;;16.30;40.50;;;;;;8369368;28;19917;-47
2021/11/19 11:54:24;;;;;;;;;;;16.30;40.50;;;;;;8368609;28;19925;-49
2021/11/19 11:58:44;;;;;;;;;;;16.30;40.60;;;;;;8369407;28;20302;-48
2021/11/19 12:02:50;;;;;;;;;;;16.30;40.50;;;;;;8370951;28;19913;-49
2021/11/19 12:07:01;;;;;;;;;;;16.30;40.50;;;;;;8369302;28;19925;-48
2021/11/19 12:11:02;;;;;;;;;;;16.30;40.50;;;;;;8368867;28;19940;-49
2021/11/19 12:15:21;;;;;;;;;;;16.30;40.60;;;;;;8368153;28;19928;-50
2021/11/19 12:19:45;;;;;;;;;;;16.30;40.60;;;;;;8368515;28;19950;-52
2021/11/19 12:23:45;;;;;;;;;;;16.30;40.60;;;;;;8367949;28;19964;-50
2021/11/19 12:27:51;;;;;;;;;;;16.30;40.60;;;;;;8368725;28;19919;-51
2021/11/19 12:31:51;;;;;;;;;;;16.30;40.60;;;;;;8372708;28;19921;-49
2021/11/19 12:35:52;;;;;;;;;;;16.30;40.60;;;;;;8367594;28;19978;-50
2021/11/19 12:39:52;;;;;;;;;;;16.30;40.60;;;;;;8367920;28;19917;-51
2021/11/19 12:44:08;;;;;;;;;;;16.30;40.60;;;;;;8368176;28;20003;-50
2021/11/19 12:48:31;;;;;;;;;;;16.30;40.60;;;;;;8365838;28;19913;-49
2021/11/19 12:52:35;;;;;;;;;;;16.30;40.60;;;;;;8339085;28;19913;-51
2021/11/19 12:57:04;;;;;;;;;;;16.30;40.60;;;;;;8366887;28;19944;-49
2021/11/19 13:01:05;;;;;;;;;;;16.40;40.70;;;;;;8297558;28;19924;-51
2021/11/19 13:05:11;;;;;;;;;;;16.40;40.70;;;;;;8349902;28;20342;-51
2021/11/19 13:09:12;;;;;;;;;;;16.30;40.60;;;;;;8366590;28;19924;-50
2021/11/19 13:13:32;;;;;;;;;;;16.40;40.70;;;;;;8367446;28;19960;-49
2021/11/19 13:17:36;;;;;;;;;;;16.30;40.60;;;;;;8366484;28;20318;-49
2021/11/19 13:21:36;;;;;;;;;;;16.40;40.70;;;;;;8366781;28;20300;-50
2021/11/19 13:25:40;;;;;;;;;;;16.40;40.70;;;;;;8366687;28;19917;-48
2021/11/19 13:29:45;;;;;;;;;;;16.40;40.70;;;;;;8366007;28;19917;-49
2021/11/19 13:34:01;;;;;;;;;;;16.40;40.70;;;;;;8366362;28;19978;-49
2021/11/19 13:38:01;;;;;;;;;;;16.40;40.70;;;;;;8365076;28;19963;-50
2021/11/19 13:42:05;;;;;;;;;;;16.40;40.70;;;;;;8365597;28;19920;-49
2021/11/19 13:46:07;;;;;;;;;;;16.40;40.70;;;;;;8365908;28;19917;-52
2021/11/19 13:50:08;;;;;;;;;;;16.40;40.80;;;;;;8365680;28;20389;-49
2021/11/19 13:54:11;;;;;;;;;;;16.40;40.70;;;;;;8365126;28;19925;-48
2021/11/19 13:58:11;;;;;;;;;;;16.40;40.70;;;;;;8365169;28;19924;-50
2021/11/19 14:02:29;;;;;;;;;;;16.40;40.80;;;;;;8364516;28;19920;-50
2021/11/19 14:06:47;;;;;;;;;;;16.30;40.70;;;;;;8364747;28;19924;-49
2021/11/19 14:10:53;;;;;;;;;;;16.30;40.70;;;;;;8365287;28;19920;-50
2021/11/19 14:14:56;;;;;;;;;;;16.40;40.80;;;;;;8364504;28;19925;-49
2021/11/19 14:19:10;;;;;;;;;;;16.30;40.80;;;;;;8365122;28;19924;-48
2021/11/19 14:23:10;;;;;;;;;;;16.30;40.80;;;;;;8365030;28;19942;-50
2021/11/19 14:27:20;;;;;;;;;;;16.30;40.80;;;;;;8364141;28;20000;-48
2021/11/19 14:31:21;;;;;;;;;;;16.30;40.80;;;;;;8364645;28;19921;-48
2021/11/19 14:35:24;;;;;;;;;;;16.30;40.80;;;;;;8364106;28;19920;-48
2021/11/19 14:39:31;;;;;;;;;;;16.30;41.30;;;;;;8363705;28;20067;-48
2021/11/19 14:43:36;;;;;;;;;;;16.30;40.80;;;;;;8364561;28;20328;-48
2021/11/19 14:47:43;;;;;;;;;;;16.30;40.80;;;;;;8363389;28;20290;-49
2021/11/19 14:51:46;;;;;;;;;;;16.30;40.80;;;;;;8363873;28;19916;-49
2021/11/19 14:55:46;;;;;;;;;;;16.30;40.80;;;;;;8363544;28;19925;-51
2021/11/19 14:59:50;;;;;;;;;;;16.30;40.80;;;;;;8363142;28;19924;-50
2021/11/19 15:03:56;;;;;;;;;;;16.30;40.80;;;;;;8363663;28;19940;-50
2021/11/19 15:07:57;;;;;;;;;;;16.30;40.80;;;;;;8363371;28;19917;-51
2021/11/19 15:11:59;;;;;;;;;;;16.30;40.90;;;;;;8361914;28;19951;-50
2021/11/19 15:16:08;;;;;;;;;;;16.30;40.90;;;;;;8363022;28;20065;-50
2021/11/19 15:20:09;;;;;;;;;;;16.30;40.90;;;;;;8363274;28;19940;-49
2021/11/19 15:24:09;;;;;;;;;;;16.30;40.90;;;;;;8362716;28;19999;-50
2021/11/19 15:28:12;;;;;;;;;;;16.30;40.90;;;;;;8363463;28;20250;-51
2021/11/19 15:32:33;;;;;;;;;;;16.30;40.90;;;;;;8363144;28;19971;-49
2021/11/19 15:36:37;;;;;;;;;;;16.30;40.90;;;;;;8362531;28;19925;-49
2021/11/19 15:40:38;;;;;;;;;;;16.30;40.90;;;;;;8362989;28;19940;-49
2021/11/19 15:44:40;;;;;;;;;;;16.30;40.90;;;;;;8362466;28;20374;-49
2021/11/19 15:48:41;;;;;;;;;;;16.30;40.90;;;;;;8362972;28;19963;-50
2021/11/19 15:52:53;;;;;;;;;;;16.30;40.80;;;;;;8362873;28;19921;-48
2021/11/19 15:56:53;;;;;;;;;;;16.20;41.10;;;;;;8362154;28;19921;-49
2021/11/19 16:00:54;;;;;;;;;;;16.20;41.00;;;;;;8362768;28;20292;-49
2021/11/19 16:05:11;;;;;;;;;;;16.30;41.10;;;;;;8362484;28;19913;-51
2021/11/19 16:09:32;;;;;;;;;;;16.30;41.10;;;;;;8362295;28;19917;-47
2021/11/19 16:13:38;;;;;;;;;;;16.30;41.00;;;;;;8361954;28;20317;-48
2021/11/19 16:17:40;;;;;;;;;;;16.30;41.00;;;;;;8361059;28;21279;-52
2021/11/19 16:21:45;;;;;;;;;;;16.30;41.10;;;;;;8363306;28;19932;-49
2021/11/19 16:25:46;;;;;;;;;;;16.30;41.00;;;;;;8369668;28;19920;-49
2021/11/19 16:29:51;;;;;;;;;;;16.30;40.90;;;;;;8367866;28;19921;-49
2021/11/19 16:33:52;;;;;;;;;;;16.30;40.90;;;;;;8368119;28;19932;-50
2021/11/19 16:37:53;;;;;;;;;;;16.30;40.90;;;;;;8368151;28;19917;-51
2021/11/19 16:41:54;;;;;;;;;;;16.20;40.90;;;;;;8367510;28;19917;-48
2021/11/19 16:45:54;;;;;;;;;;;16.30;41.00;;;;;;8367751;28;20254;-47
2021/11/19 16:49:55;;;;;;;;;;;16.30;41.00;;;;;;8367637;28;19964;-50
2021/11/19 16:53:56;;;;;;;;;;;16.30;41.00;;;;;;8367222;28;19932;-48
2021/11/19 16:57:57;;;;;;;;;;;16.30;41.00;;;;;;8365078;28;19967;-49
2021/11/19 17:01:57;;;;;;;;;;;16.30;41.00;;;;;;8364416;28;19924;-46
2021/11/19 17:05:58;;;;;;;;;;;16.30;41.00;;;;;;8365687;28;19917;-49
2021/11/19 17:09:59;;;;;;;;;;;16.30;41.00;;;;;;8357004;28;19920;-48
2021/11/19 17:13:59;;;;;;;;;;;16.30;41.00;;;;;;8367004;28;19955;-48
2021/11/19 17:18:00;;;;;;;;;;;16.30;41.00;;;;;;8366286;28;20309;-48
2021/11/19 17:22:00;;;;;;;;;;;16.20;40.90;;;;;;8365409;28;19921;-49
2021/11/19 17:26:01;;;;;;;;;;;16.20;41.00;;;;;;8366514;28;19921;-48
2021/11/19 17:30:04;;;;;;;;;;;16.20;41.00;;;;;;8366699;28;19978;-51
2021/11/19 17:34:04;;;;;;;;;;;16.20;41.50;;;;;;8365507;28;19931;-49
2021/11/19 17:38:05;;;;;;;;;;;16.20;41.00;;;;;;8366193;28;20316;-47
2021/11/19 17:42:06;;;;;;;;;;;16.20;41.00;;;;;;8365526;28;20378;-48
2021/11/19 17:46:34;;;;;;;;;;;16.20;41.00;;;;;;8365686;28;19917;-48
2021/11/19 17:50:34;;;;;;;;;;;16.20;41.00;;;;;;8363035;28;20392;-47
2021/11/19 17:54:35;;;;;;;;;;;16.20;41.00;;;;;;8365444;28;19928;-48
2021/11/19 17:58:36;;;;;;;;;;;16.20;41.00;;;;;;8365689;28;19962;-48
2021/11/19 18:02:37;;;;;;;;;;;16.20;41.00;;;;;;8364849;28;20329;-48
2021/11/19 18:06:37;;;;;;;;;;;16.20;41.00;;;;;;8365276;28;20301;-49
2021/11/19 18:10:38;;;;;;;;;;;16.30;41.00;;;;;;8365011;28;19943;-48
2021/11/19 18:14:40;;;;;;;;;;;16.20;41.00;;;;;;8364427;28;19954;-47
2021/11/19 18:18:41;;;;;;;;;;;16.20;41.00;;;;;;8364831;28;20378;-50
2021/11/19 18:22:44;;;;;;;;;;;16.20;41.00;;;;;;8363361;28;19939;-47
2021/11/19 18:26:44;;;;;;;;;;;16.20;41.00;;;;;;8364049;28;20388;-46
2021/11/19 18:30:47;;;;;;;;;;;16.20;41.00;;;;;;8364623;28;19917;-48
2021/11/19 18:34:48;;;;;;;;;;;16.20;41.00;;;;;;8364359;28;19921;-51
2021/11/19 18:38:49;;;;;;;;;;;16.20;41.00;;;;;;8362618;28;19940;-48
2021/11/19 18:42:50;;;;;;;;;;;16.20;41.00;;;;;;8364059;28;19916;-49
2021/11/19 18:46:51;;;;;;;;;;;16.20;41.00;;;;;;8363963;28;20394;-48
2021/11/19 18:50:53;;;;;;;;;;;16.20;41.00;;;;;;8363335;28;20392;-48
2021/11/19 18:54:54;;;;;;;;;;;16.20;41.00;;;;;;8363824;28;20435;-50
2021/11/19 18:58:54;;;;;;;;;;;16.20;41.00;;;;;;8363710;28;19917;-48
2021/11/19 19:02:55;;;;;;;;;;;16.20;41.00;;;;;;8363100;28;19917;-50
2021/11/19 19:06:56;;;;;;;;;;;16.20;41.00;;;;;;8363848;28;19963;-50
2021/11/19 19:10:58;;;;;;;;;;;16.20;41.00;;;;;;8363350;28;19920;-51
2021/11/19 19:14:58;;;;;;;;;;;16.20;41.00;;;;;;8363215;28;19970;-48
2021/11/19 19:18:59;;;;;;;;;;;16.20;41.00;;;;;;8363309;28;19917;-51
2021/11/19 19:23:00;;;;;;;;;;;16.20;41.00;;;;;;8363431;28;19963;-49
2021/11/19 19:27:03;;;;;;;;;;;16.20;41.00;;;;;;8362861;28;19917;-51
2021/11/19 19:31:08;;;;;;;;;;;16.20;41.60;;;;;;8363673;28;20360;-48
2021/11/19 19:35:10;;;;;;;;;;;16.20;41.00;;;;;;8363148;28;19924;-52
2021/11/19 19:39:12;;;;;;;;;;;16.20;41.10;;;;;;8362604;28;19924;-51
2021/11/19 19:43:14;;;;;;;;;;;16.20;41.00;;;;;;8363204;28;20266;-51
2021/11/19 19:47:15;;;;;;;;;;;16.20;41.00;;;;;;8362988;28;20403;-48
2021/11/19 19:51:17;;;;;;;;;;;16.20;41.10;;;;;;8362371;28;19923;-51
2021/11/19 19:55:18;;;;;;;;;;;16.20;41.00;;;;;;8363003;28;20301;-48
2021/11/19 19:59:20;;;;;;;;;;;16.20;41.00;;;;;;8368066;28;19920;-49
2021/11/19 20:03:21;;;;;;;;;;;16.20;41.10;;;;;;8368678;28;19943;-48
2021/11/19 20:07:23;;;;;;;;;;;16.20;41.10;;;;;;8368951;28;19920;-50
2021/11/19 20:11:24;;;;;;;;;;;16.20;41.10;;;;;;8360262;28;19978;-49
2021/11/19 20:15:27;;;;;;;;;;;16.20;41.10;;;;;;8368572;28;19974;-49
2021/11/19 20:19:28;;;;;;;;;;;16.20;41.00;;;;;;8369006;28;19939;-52
2021/11/19 20:23:29;;;;;;;;;;;16.20;41.10;;;;;;8368572;28;19956;-51
2021/11/19 20:27:30;;;;;;;;;;;16.20;41.10;;;;;;8367976;28;19924;-50
2021/11/19 20:31:36;;;;;;;;;;;16.20;41.00;;;;;;8368632;28;19924;-48
2021/11/19 20:35:38;;;;;;;;;;;16.20;41.10;;;;;;8367906;28;19960;-52
2021/11/19 20:39:38;;;;;;;;;;;16.20;41.00;;;;;;8367955;28;20310;-49
2021/11/19 20:43:39;;;;;;;;;;;16.20;41.10;;;;;;8367837;28;19970;-50
2021/11/19 20:47:40;;;;;;;;;;;16.20;41.10;;;;;;8367289;28;19917;-48
2021/11/19 20:51:40;;;;;;;;;;;16.10;41.00;;;;;;8367686;28;19943;-48
2021/11/19 20:55:42;;;;;;;;;;;16.20;41.00;;;;;;8367826;28;19929;-47
2021/11/19 20:59:43;;;;;;;;;;;16.20;41.60;;;;;;8367167;28;19931;-48
2021/11/19 21:03:45;;;;;;;;;;;16.20;41.10;;;;;;8367416;28;19956;-49
2021/11/19 21:07:46;;;;;;;;;;;16.20;41.10;;;;;;8366412;28;19917;-49
2021/11/19 21:11:51;;;;;;;;;;;16.20;41.10;;;;;;8366299;28;20016;-47
2021/11/19 21:15:51;;;;;;;;;;;16.20;41.00;;;;;;8366905;28;19935;-47
2021/11/19 21:19:52;;;;;;;;;;;16.20;41.10;;;;;;8366885;28;20292;-49
2021/11/19 21:23:53;;;;;;;;;;;16.20;41.10;;;;;;8366163;28;20320;-48
2021/11/19 21:27:55;;;;;;;;;;;16.20;41.10;;;;;;8366367;28;19921;-48
2021/11/19 21:32:04;;;;;;;;;;;16.20;41.10;;;;;;8366519;28;19925;-48
2021/11/19 21:36:06;;;;;;;;;;;16.10;41.00;;;;;;8365833;28;19921;-48
2021/11/19 21:40:07;;;;;;;;;;;16.20;41.10;;;;;;8366192;28;19985;-48
2021/11/19 21:44:10;;;;;;;;;;;16.10;41.10;;;;;;8365905;28;20070;-48
2021/11/19 21:48:11;;;;;;;;;;;16.10;41.10;;;;;;8365317;28;19917;-48
2021/11/19 21:52:14;;;;;;;;;;;16.10;41.10;;;;;;8365826;28;19959;-48
2021/11/19 21:56:21;;;;;;;;;;;16.10;41.00;;;;;;8365833;28;19978;-51
2021/11/19 22:00:27;;;;;;;;;;;16.10;41.00;;;;;;8365041;28;20315;-49
2021/11/19 22:04:30;;;;;;;;;;;16.10;41.60;;;;;;8365600;28;19921;-48
2021/11/19 22:08:30;;;;;;;;;;;16.10;41.00;;;;;;8365247;28;19952;-47
2021/11/19 22:12:31;;;;;;;;;;;16.10;41.00;;;;;;8364807;28;20273;-48
2021/11/19 22:16:32;;;;;;;;;;;16.10;41.10;;;;;;8365233;28;19924;-46
2021/11/19 22:20:34;;;;;;;;;;;16.10;41.10;;;;;;8364061;28;19916;-47
2021/11/19 22:24:36;;;;;;;;;;;16.10;41.10;;;;;;8364758;28;19917;-48
2021/11/19 22:28:38;;;;;;;;;;;16.10;41.60;;;;;;8364701;28;20432;-49
2021/11/19 22:32:38;;;;;;;;;;;16.10;41.00;;;;;;8363950;28;20294;-47
2021/11/19 22:36:40;;;;;;;;;;;16.10;41.10;;;;;;8364641;28;19928;-48
2021/11/19 22:40:43;;;;;;;;;;;16.10;41.10;;;;;;8364679;28;19939;-47
2021/11/19 22:44:45;;;;;;;;;;;16.10;41.10;;;;;;8363607;28;20234;-49
2021/11/19 22:48:47;;;;;;;;;;;16.10;41.00;;;;;;8364096;28;19920;-51
2021/11/19 22:52:47;;;;;;;;;;;16.10;41.00;;;;;;8364004;28;20365;-50
2021/11/19 22:56:50;;;;;;;;;;;16.10;41.00;;;;;;8363647;28;19999;-48
2021/11/19 23:01:09;;;;;;;;;;;16.10;41.00;;;;;;8362929;28;19948;-48
2021/11/19 23:05:11;;;;;;;;;;;16.10;41.00;;;;;;8363622;28;19986;-49
2021/11/19 23:09:15;;;;;;;;;;;16.00;41.00;;;;;;8363109;28;19944;-48
2021/11/19 23:13:16;;;;;;;;;;;16.10;41.00;;;;;;8344501;28;20382;-48
2021/11/19 23:17:19;;;;;;;;;;;16.10;41.00;;;;;;8363363;28;19999;-48
2021/11/19 23:21:27;;;;;;;;;;;16.00;41.00;;;;;;8363068;28;19945;-51
2021/11/19 23:25:31;;;;;;;;;;;16.00;41.00;;;;;;8363098;28;19968;-48
2021/11/19 23:29:32;;;;;;;;;;;16.00;41.00;;;;;;8362807;28;19920;-46
2021/11/19 23:33:34;;;;;;;;;;;16.00;41.00;;;;;;8362204;28;19961;-47
2021/11/19 23:37:37;;;;;;;;;;;16.00;41.00;;;;;;8363219;28;19913;-48